sensor_id;sensor_type;location;lat;lon;timestamp;P1;P2;P0
28026;PMS5003;15344;52.342;-1.290;2024-03-02T00:01:58;10;8;
28026;PMS5003;15344;52.342;-1.290;2024-03-02T00:04:24;10;5;
28026;PMS5003;15344;52.342;-1.290;2024-03-02T00:06:51;8;6;
28026;PMS5003;15344;52.342;-1.290;2024-03-02T00:09:15;8;7;
28026;PMS5003;15344;52.342;-1.290;2024-03-02T00:11:40;10;9;
28026;PMS5003;15344;52.342;-1.290;2024-03-02T00:14:06;9;5;
28026;PMS5003;15344;52.342;-1.290;2024-03-02T00:16:31;9;7;
28026;PMS5003;15344;52.342;-1.290;2024-03-02T00:19:00;9;4;
28026;PMS5003;15344;52.342;-1.290;2024-03-02T00:21:24;6;5;
28026;PMS5003;15344;52.342;-1.290;2024-03-02T00:23:48;5;4;
28026;PMS5003;15344;52.342;-1.290;2024-03-02T00:26:13;4;4;
28026;PMS5003;15344;52.342;-1.290;2024-03-02T00:28:39;3;3;
28026;PMS5003;15344;52.342;-1.290;2024-03-02T00:31:05;7;7;
28026;PMS5003;15344;52.342;-1.290;2024-03-02T00:33:30;7;5;
28026;PMS5003;15344;52.342;-1.290;2024-03-02T00:35:55;5;5;
28026;PMS5003;15344;52.342;-1.290;2024-03-02T00:38:21;8;5;
28026;PMS5003;15344;52.342;-1.290;2024-03-02T00:40:46;4;4;
28026;PMS5003;15344;52.342;-1.290;2024-03-02T00:43:24;6;5;
28026;PMS5003;15344;52.342;-1.290;2024-03-02T00:45:39;9;7;
28026;PMS5003;15344;52.342;-1.290;2024-03-02T00:48:03;6;5;
28026;PMS5003;15344;52.342;-1.290;2024-03-02T00:50:28;6;6;
28026;PMS5003;15344;52.342;-1.290;2024-03-02T00:52:54;6;5;
28026;PMS5003;15344;52.342;-1.290;2024-03-02T00:55:19;6;6;
28026;PMS5003;15344;52.342;-1.290;2024-03-02T00:57:45;7;7;
28026;PMS5003;15344;52.342;-1.290;2024-03-02T01:00:11;7;7;
28026;PMS5003;15344;52.342;-1.290;2024-03-02T01:02:36;8;6;
28026;PMS5003;15344;52.342;-1.290;2024-03-02T01:05:01;7;7;
28026;PMS5003;15344;52.342;-1.290;2024-03-02T01:07:27;9;6;
28026;PMS5003;15344;52.342;-1.290;2024-03-02T01:09:53;7;7;
28026;PMS5003;15344;52.342;-1.290;2024-03-02T01:12:18;9;7;
28026;PMS5003;15344;52.342;-1.290;2024-03-02T01:14:44;9;6;
28026;PMS5003;15344;52.342;-1.290;2024-03-02T01:17:09;5;4;
28026;PMS5003;15344;52.342;-1.290;2024-03-02T01:19:34;11;8;
28026;PMS5003;15344;52.342;-1.290;2024-03-02T01:22:00;8;6;
28026;PMS5003;15344;52.342;-1.290;2024-03-02T01:24:25;17;7;
28026;PMS5003;15344;52.342;-1.290;2024-03-02T01:26:50;11;9;
28026;PMS5003;15344;52.342;-1.290;2024-03-02T01:29:16;16;11;
28026;PMS5003;15344;52.342;-1.290;2024-03-02T01:31:41;13;12;
28026;PMS5003;15344;52.342;-1.290;2024-03-02T01:34:07;10;10;
28026;PMS5003;15344;52.342;-1.290;2024-03-02T01:36:32;16;10;
28026;PMS5003;15344;52.342;-1.290;2024-03-02T01:38:58;11;10;
28026;PMS5003;15344;52.342;-1.290;2024-03-02T01:41:23;11;11;
28026;PMS5003;15344;52.342;-1.290;2024-03-02T01:43:49;15;12;
28026;PMS5003;15344;52.342;-1.290;2024-03-02T01:46:14;12;9;
28026;PMS5003;15344;52.342;-1.290;2024-03-02T01:48:39;12;11;
28026;PMS5003;15344;52.342;-1.290;2024-03-02T01:51:06;16;13;
28026;PMS5003;15344;52.342;-1.290;2024-03-02T01:53:30;16;14;
28026;PMS5003;15344;52.342;-1.290;2024-03-02T01:55:56;11;11;
28026;PMS5003;15344;52.342;-1.290;2024-03-02T01:58:21;15;14;
28026;PMS5003;15344;52.342;-1.290;2024-03-02T02:00:46;12;12;
28026;PMS5003;15344;52.342;-1.290;2024-03-02T02:03:11;15;11;
28026;PMS5003;15344;52.342;-1.290;2024-03-02T02:05:37;23;12;
28026;PMS5003;15344;52.342;-1.290;2024-03-02T02:08:02;15;11;
28026;PMS5003;15344;52.342;-1.290;2024-03-02T02:10:28;26;9;
28026;PMS5003;15344;52.342;-1.290;2024-03-02T02:12:53;14;10;
28026;PMS5003;15344;52.342;-1.290;2024-03-02T02:15:22;16;14;
28026;PMS5003;15344;52.342;-1.290;2024-03-02T02:17:44;12;10;
28026;PMS5003;15344;52.342;-1.290;2024-03-02T02:20:10;26;14;
28026;PMS5003;15344;52.342;-1.290;2024-03-02T02:22:35;15;13;
28026;PMS5003;15344;52.342;-1.290;2024-03-02T02:25:00;19;14;
28026;PMS5003;15344;52.342;-1.290;2024-03-02T02:27:26;23;15;
28026;PMS5003;15344;52.342;-1.290;2024-03-02T02:29:51;30;13;
28026;PMS5003;15344;52.342;-1.290;2024-03-02T02:32:17;21;16;
28026;PMS5003;15344;52.342;-1.290;2024-03-02T02:34:41;15;12;
28026;PMS5003;15344;52.342;-1.290;2024-03-02T02:37:07;15;15;
28026;PMS5003;15344;52.342;-1.290;2024-03-02T02:39:32;20;16;
28026;PMS5003;15344;52.342;-1.290;2024-03-02T02:41:57;16;14;
28026;PMS5003;15344;52.342;-1.290;2024-03-02T02:44:22;23;14;
28026;PMS5003;15344;52.342;-1.290;2024-03-02T02:46:48;28;15;
28026;PMS5003;15344;52.342;-1.290;2024-03-02T02:49:14;17;15;
28026;PMS5003;15344;52.342;-1.290;2024-03-02T02:51:39;18;16;
28026;PMS5003;15344;52.342;-1.290;2024-03-02T02:54:05;15;14;
28026;PMS5003;15344;52.342;-1.290;2024-03-02T02:56:31;13;10;
28026;PMS5003;15344;52.342;-1.290;2024-03-02T02:58:56;13;13;
28026;PMS5003;15344;52.342;-1.290;2024-03-02T03:01:22;12;11;
28026;PMS5003;15344;52.342;-1.290;2024-03-02T03:03:47;12;11;
28026;PMS5003;15344;52.342;-1.290;2024-03-02T03:06:12;12;10;
28026;PMS5003;15344;52.342;-1.290;2024-03-02T03:08:38;10;10;
28026;PMS5003;15344;52.342;-1.290;2024-03-02T03:11:03;8;7;
28026;PMS5003;15344;52.342;-1.290;2024-03-02T03:13:29;13;11;
28026;PMS5003;15344;52.342;-1.290;2024-03-02T03:15:54;14;12;
28026;PMS5003;15344;52.342;-1.290;2024-03-02T03:18:20;15;12;
28026;PMS5003;15344;52.342;-1.290;2024-03-02T03:20:46;14;10;
28026;PMS5003;15344;52.342;-1.290;2024-03-02T03:23:11;14;12;
28026;PMS5003;15344;52.342;-1.290;2024-03-02T03:25:36;17;10;
28026;PMS5003;15344;52.342;-1.290;2024-03-02T03:28:02;11;9;
28026;PMS5003;15344;52.342;-1.290;2024-03-02T03:30:27;8;7;
28026;PMS5003;15344;52.342;-1.290;2024-03-02T03:32:53;17;11;
28026;PMS5003;15344;52.342;-1.290;2024-03-02T03:35:18;11;11;
28026;PMS5003;15344;52.342;-1.290;2024-03-02T03:37:44;12;11;
28026;PMS5003;15344;52.342;-1.290;2024-03-02T03:40:10;24;12;
28026;PMS5003;15344;52.342;-1.290;2024-03-02T03:42:35;14;12;
28026;PMS5003;15344;52.342;-1.290;2024-03-02T03:45:01;12;12;
28026;PMS5003;15344;52.342;-1.290;2024-03-02T03:47:26;18;13;
28026;PMS5003;15344;52.342;-1.290;2024-03-02T03:49:51;23;11;
28026;PMS5003;15344;52.342;-1.290;2024-03-02T03:52:17;16;11;
28026;PMS5003;15344;52.342;-1.290;2024-03-02T03:54:42;13;10;
28026;PMS5003;15344;52.342;-1.290;2024-03-02T03:57:08;17;9;
28026;PMS5003;15344;52.342;-1.290;2024-03-02T03:59:33;16;11;
28026;PMS5003;15344;52.342;-1.290;2024-03-02T04:01:58;19;10;
28026;PMS5003;15344;52.342;-1.290;2024-03-02T04:04:24;8;7;
28026;PMS5003;15344;52.342;-1.290;2024-03-02T04:06:49;18;12;
28026;PMS5003;15344;52.342;-1.290;2024-03-02T04:09:15;8;7;
28026;PMS5003;15344;52.342;-1.290;2024-03-02T04:11:40;13;10;
28026;PMS5003;15344;52.342;-1.290;2024-03-02T04:14:06;9;8;
28026;PMS5003;15344;52.342;-1.290;2024-03-02T04:16:32;12;9;
28026;PMS5003;15344;52.342;-1.290;2024-03-02T04:18:57;8;8;
28026;PMS5003;15344;52.342;-1.290;2024-03-02T04:21:23;9;9;
28026;PMS5003;15344;52.342;-1.290;2024-03-02T04:23:48;8;8;
28026;PMS5003;15344;52.342;-1.290;2024-03-02T04:26:14;8;7;
28026;PMS5003;15344;52.342;-1.290;2024-03-02T04:28:39;8;8;
28026;PMS5003;15344;52.342;-1.290;2024-03-02T04:31:05;9;7;
28026;PMS5003;15344;52.342;-1.290;2024-03-02T04:33:30;10;9;
28026;PMS5003;15344;52.342;-1.290;2024-03-02T04:35:56;12;10;
28026;PMS5003;15344;52.342;-1.290;2024-03-02T04:38:21;18;9;
28026;PMS5003;15344;52.342;-1.290;2024-03-02T04:40:47;10;10;
28026;PMS5003;15344;52.342;-1.290;2024-03-02T04:43:12;11;10;
28026;PMS5003;15344;52.342;-1.290;2024-03-02T04:45:38;9;7;
28026;PMS5003;15344;52.342;-1.290;2024-03-02T04:48:04;11;6;
28026;PMS5003;15344;52.342;-1.290;2024-03-02T04:50:29;7;6;
28026;PMS5003;15344;52.342;-1.290;2024-03-02T04:52:54;10;10;
28026;PMS5003;15344;52.342;-1.290;2024-03-02T04:55:20;8;7;
28026;PMS5003;15344;52.342;-1.290;2024-03-02T04:57:46;9;7;
28026;PMS5003;15344;52.342;-1.290;2024-03-02T05:00:11;6;6;
28026;PMS5003;15344;52.342;-1.290;2024-03-02T05:02:36;5;4;
28026;PMS5003;15344;52.342;-1.290;2024-03-02T05:05:02;5;4;
28026;PMS5003;15344;52.342;-1.290;2024-03-02T05:07:27;6;6;
28026;PMS5003;15344;52.342;-1.290;2024-03-02T05:09:53;4;4;
28026;PMS5003;15344;52.342;-1.290;2024-03-02T05:12:19;5;5;
28026;PMS5003;15344;52.342;-1.290;2024-03-02T05:14:45;5;5;
28026;PMS5003;15344;52.342;-1.290;2024-03-02T05:17:10;5;5;
28026;PMS5003;15344;52.342;-1.290;2024-03-02T05:19:35;6;4;
28026;PMS5003;15344;52.342;-1.290;2024-03-02T05:22:01;4;2;
28026;PMS5003;15344;52.342;-1.290;2024-03-02T05:24:26;4;4;
28026;PMS5003;15344;52.342;-1.290;2024-03-02T05:26:52;3;1;
28026;PMS5003;15344;52.342;-1.290;2024-03-02T05:29:18;4;4;
28026;PMS5003;15344;52.342;-1.290;2024-03-02T05:31:43;2;2;
28026;PMS5003;15344;52.342;-1.290;2024-03-02T05:34:09;5;5;
28026;PMS5003;15344;52.342;-1.290;2024-03-02T05:36:34;3;3;
28026;PMS5003;15344;52.342;-1.290;2024-03-02T05:39:00;1;1;
28026;PMS5003;15344;52.342;-1.290;2024-03-02T05:41:25;2;2;
28026;PMS5003;15344;52.342;-1.290;2024-03-02T05:43:51;7;3;
28026;PMS5003;15344;52.342;-1.290;2024-03-02T05:46:16;2;2;
28026;PMS5003;15344;52.342;-1.290;2024-03-02T05:48:42;3;3;
28026;PMS5003;15344;52.342;-1.290;2024-03-02T05:51:07;3;2;
28026;PMS5003;15344;52.342;-1.290;2024-03-02T05:53:33;0;0;
28026;PMS5003;15344;52.342;-1.290;2024-03-02T05:55:58;2;2;
28026;PMS5003;15344;52.342;-1.290;2024-03-02T05:58:24;3;3;
28026;PMS5003;15344;52.342;-1.290;2024-03-02T06:00:50;2;2;
28026;PMS5003;15344;52.342;-1.290;2024-03-02T06:03:15;3;3;
28026;PMS5003;15344;52.342;-1.290;2024-03-02T06:05:41;4;3;
28026;PMS5003;15344;52.342;-1.290;2024-03-02T06:08:06;5;3;
28026;PMS5003;15344;52.342;-1.290;2024-03-02T06:10:32;3;3;
28026;PMS5003;15344;52.342;-1.290;2024-03-02T06:12:57;4;3;
28026;PMS5003;15344;52.342;-1.290;2024-03-02T06:15:23;5;5;
28026;PMS5003;15344;52.342;-1.290;2024-03-02T06:17:49;4;4;
28026;PMS5003;15344;52.342;-1.290;2024-03-02T06:20:14;4;4;
28026;PMS5003;15344;52.342;-1.290;2024-03-02T06:22:40;5;3;
28026;PMS5003;15344;52.342;-1.290;2024-03-02T06:25:05;7;5;
28026;PMS5003;15344;52.342;-1.290;2024-03-02T06:27:31;6;5;
28026;PMS5003;15344;52.342;-1.290;2024-03-02T06:29:56;4;4;
28026;PMS5003;15344;52.342;-1.290;2024-03-02T06:32:22;5;3;
28026;PMS5003;15344;52.342;-1.290;2024-03-02T06:34:47;7;5;
28026;PMS5003;15344;52.342;-1.290;2024-03-02T06:37:13;9;4;
28026;PMS5003;15344;52.342;-1.290;2024-03-02T06:39:38;8;5;
28026;PMS5003;15344;52.342;-1.290;2024-03-02T06:42:04;3;3;
28026;PMS5003;15344;52.342;-1.290;2024-03-02T06:44:29;14;4;
28026;PMS5003;15344;52.342;-1.290;2024-03-02T06:46:55;6;6;
28026;PMS5003;15344;52.342;-1.290;2024-03-02T06:49:20;8;5;
28026;PMS5003;15344;52.342;-1.290;2024-03-02T06:51:46;7;6;
28026;PMS5003;15344;52.342;-1.290;2024-03-02T06:54:12;8;5;
28026;PMS5003;15344;52.342;-1.290;2024-03-02T06:56:37;7;3;
28026;PMS5003;15344;52.342;-1.290;2024-03-02T06:59:03;10;7;
28026;PMS5003;15344;52.342;-1.290;2024-03-02T07:01:28;7;4;
28026;PMS5003;15344;52.342;-1.290;2024-03-02T07:03:54;6;4;
28026;PMS5003;15344;52.342;-1.290;2024-03-02T07:06:19;4;4;
28026;PMS5003;15344;52.342;-1.290;2024-03-02T07:08:45;4;3;
28026;PMS5003;15344;52.342;-1.290;2024-03-02T07:11:10;7;6;
28026;PMS5003;15344;52.342;-1.290;2024-03-02T07:13:36;7;5;
28026;PMS5003;15344;52.342;-1.290;2024-03-02T07:16:02;7;4;
28026;PMS5003;15344;52.342;-1.290;2024-03-02T07:18:27;8;3;
28026;PMS5003;15344;52.342;-1.290;2024-03-02T07:20:52;5;3;
28026;PMS5003;15344;52.342;-1.290;2024-03-02T07:23:18;5;4;
28026;PMS5003;15344;52.342;-1.290;2024-03-02T07:25:43;6;4;
28026;PMS5003;15344;52.342;-1.290;2024-03-02T07:28:09;5;4;
28026;PMS5003;15344;52.342;-1.290;2024-03-02T07:30:35;5;3;
28026;PMS5003;15344;52.342;-1.290;2024-03-02T07:33:00;4;4;
28026;PMS5003;15344;52.342;-1.290;2024-03-02T07:35:26;3;3;
28026;PMS5003;15344;52.342;-1.290;2024-03-02T07:37:51;8;5;
28026;PMS5003;15344;52.342;-1.290;2024-03-02T07:40:17;7;3;
28026;PMS5003;15344;52.342;-1.290;2024-03-02T07:42:42;9;3;
28026;PMS5003;15344;52.342;-1.290;2024-03-02T07:45:08;2;2;
28026;PMS5003;15344;52.342;-1.290;2024-03-02T07:47:34;4;2;
28026;PMS5003;15344;52.342;-1.290;2024-03-02T07:49:59;1;1;
28026;PMS5003;15344;52.342;-1.290;2024-03-02T07:52:25;3;3;
28026;PMS5003;15344;52.342;-1.290;2024-03-02T07:54:50;3;2;
28026;PMS5003;15344;52.342;-1.290;2024-03-02T07:57:16;4;2;
28026;PMS5003;15344;52.342;-1.290;2024-03-02T07:59:41;6;4;
28026;PMS5003;15344;52.342;-1.290;2024-03-02T08:02:07;4;2;
28026;PMS5003;15344;52.342;-1.290;2024-03-02T08:04:32;3;2;
28026;PMS5003;15344;52.342;-1.290;2024-03-02T08:06:58;4;2;
28026;PMS5003;15344;52.342;-1.290;2024-03-02T08:09:24;2;2;
28026;PMS5003;15344;52.342;-1.290;2024-03-02T08:11:49;0;0;
28026;PMS5003;15344;52.342;-1.290;2024-03-02T08:14:15;5;3;
28026;PMS5003;15344;52.342;-1.290;2024-03-02T08:16:40;5;1;
28026;PMS5003;15344;52.342;-1.290;2024-03-02T08:19:06;2;1;
28026;PMS5003;15344;52.342;-1.290;2024-03-02T08:21:31;4;1;
28026;PMS5003;15344;52.342;-1.290;2024-03-02T08:23:57;3;2;
28026;PMS5003;15344;52.342;-1.290;2024-03-02T08:26:22;3;2;
28026;PMS5003;15344;52.342;-1.290;2024-03-02T08:28:48;1;1;
28026;PMS5003;15344;52.342;-1.290;2024-03-02T08:31:13;5;2;
28026;PMS5003;15344;52.342;-1.290;2024-03-02T08:33:39;3;2;
28026;PMS5003;15344;52.342;-1.290;2024-03-02T08:36:05;3;2;
28026;PMS5003;15344;52.342;-1.290;2024-03-02T08:38:30;2;1;
28026;PMS5003;15344;52.342;-1.290;2024-03-02T08:40:56;4;2;
28026;PMS5003;15344;52.342;-1.290;2024-03-02T08:43:21;4;4;
28026;PMS5003;15344;52.342;-1.290;2024-03-02T08:45:46;0;0;
28026;PMS5003;15344;52.342;-1.290;2024-03-02T08:48:12;3;3;
28026;PMS5003;15344;52.342;-1.290;2024-03-02T08:50:38;2;2;
28026;PMS5003;15344;52.342;-1.290;2024-03-02T08:53:03;1;1;
28026;PMS5003;15344;52.342;-1.290;2024-03-02T08:55:29;5;2;
28026;PMS5003;15344;52.342;-1.290;2024-03-02T08:57:55;1;1;
28026;PMS5003;15344;52.342;-1.290;2024-03-02T09:00:20;2;2;
28026;PMS5003;15344;52.342;-1.290;2024-03-02T09:02:45;1;1;
28026;PMS5003;15344;52.342;-1.290;2024-03-02T09:05:11;1;1;
28026;PMS5003;15344;52.342;-1.290;2024-03-02T09:07:36;3;1;
28026;PMS5003;15344;52.342;-1.290;2024-03-02T09:10:02;2;1;
28026;PMS5003;15344;52.342;-1.290;2024-03-02T09:12:27;1;1;
28026;PMS5003;15344;52.342;-1.290;2024-03-02T09:14:53;2;2;
28026;PMS5003;15344;52.342;-1.290;2024-03-02T09:17:19;0;0;
28026;PMS5003;15344;52.342;-1.290;2024-03-02T09:19:44;0;0;
28026;PMS5003;15344;52.342;-1.290;2024-03-02T09:22:09;1;1;
28026;PMS5003;15344;52.342;-1.290;2024-03-02T09:24:35;4;2;
28026;PMS5003;15344;52.342;-1.290;2024-03-02T09:27:00;0;0;
28026;PMS5003;15344;52.342;-1.290;2024-03-02T09:29:26;1;1;
28026;PMS5003;15344;52.342;-1.290;2024-03-02T09:31:51;2;1;
28026;PMS5003;15344;52.342;-1.290;2024-03-02T09:34:17;1;1;
28026;PMS5003;15344;52.342;-1.290;2024-03-02T09:36:42;1;1;
28026;PMS5003;15344;52.342;-1.290;2024-03-02T09:39:08;1;1;
28026;PMS5003;15344;52.342;-1.290;2024-03-02T09:41:33;1;1;
28026;PMS5003;15344;52.342;-1.290;2024-03-02T09:43:58;1;1;
28026;PMS5003;15344;52.342;-1.290;2024-03-02T09:46:24;0;0;
28026;PMS5003;15344;52.342;-1.290;2024-03-02T09:48:49;0;0;
28026;PMS5003;15344;52.342;-1.290;2024-03-02T09:51:15;0;0;
28026;PMS5003;15344;52.342;-1.290;2024-03-02T09:53:40;0;0;
28026;PMS5003;15344;52.342;-1.290;2024-03-02T09:56:06;0;0;
28026;PMS5003;15344;52.342;-1.290;2024-03-02T09:58:31;0;0;
28026;PMS5003;15344;52.342;-1.290;2024-03-02T10:00:57;0;0;
28026;PMS5003;15344;52.342;-1.290;2024-03-02T10:03:22;0;0;
28026;PMS5003;15344;52.342;-1.290;2024-03-02T10:05:47;2;1;
28026;PMS5003;15344;52.342;-1.290;2024-03-02T10:08:13;0;0;
28026;PMS5003;15344;52.342;-1.290;2024-03-02T10:10:39;0;0;
28026;PMS5003;15344;52.342;-1.290;2024-03-02T10:13:04;2;0;
28026;PMS5003;15344;52.342;-1.290;2024-03-02T10:15:29;1;0;
28026;PMS5003;15344;52.342;-1.290;2024-03-02T10:17:54;0;0;
28026;PMS5003;15344;52.342;-1.290;2024-03-02T10:20:21;0;0;
28026;PMS5003;15344;52.342;-1.290;2024-03-02T10:22:45;1;1;
28026;PMS5003;15344;52.342;-1.290;2024-03-02T10:25:12;1;1;
28026;PMS5003;15344;52.342;-1.290;2024-03-02T10:27:36;1;1;
28026;PMS5003;15344;52.342;-1.290;2024-03-02T10:30:03;4;2;
28026;PMS5003;15344;52.342;-1.290;2024-03-02T10:32:27;2;1;
28026;PMS5003;15344;52.342;-1.290;2024-03-02T10:34:52;2;1;
28026;PMS5003;15344;52.342;-1.290;2024-03-02T10:37:18;3;1;
28026;PMS5003;15344;52.342;-1.290;2024-03-02T10:39:43;2;2;
28026;PMS5003;15344;52.342;-1.290;2024-03-02T10:42:09;0;0;
28026;PMS5003;15344;52.342;-1.290;2024-03-02T10:44:34;0;0;
28026;PMS5003;15344;52.342;-1.290;2024-03-02T10:47:00;1;1;
28026;PMS5003;15344;52.342;-1.290;2024-03-02T10:49:25;0;0;
28026;PMS5003;15344;52.342;-1.290;2024-03-02T10:51:50;1;0;
28026;PMS5003;15344;52.342;-1.290;2024-03-02T10:54:16;0;0;
28026;PMS5003;15344;52.342;-1.290;2024-03-02T10:56:43;0;0;
28026;PMS5003;15344;52.342;-1.290;2024-03-02T10:59:11;1;1;
28026;PMS5003;15344;52.342;-1.290;2024-03-02T11:01:32;0;0;
28026;PMS5003;15344;52.342;-1.290;2024-03-02T11:03:58;0;0;
28026;PMS5003;15344;52.342;-1.290;2024-03-02T11:06:23;0;0;
28026;PMS5003;15344;52.342;-1.290;2024-03-02T11:08:48;0;0;
28026;PMS5003;15344;52.342;-1.290;2024-03-02T11:11:15;0;0;
28026;PMS5003;15344;52.342;-1.290;2024-03-02T11:13:39;0;0;
28026;PMS5003;15344;52.342;-1.290;2024-03-02T11:16:06;0;0;
28026;PMS5003;15344;52.342;-1.290;2024-03-02T11:18:30;1;1;
28026;PMS5003;15344;52.342;-1.290;2024-03-02T11:20:55;1;1;
28026;PMS5003;15344;52.342;-1.290;2024-03-02T11:23:21;1;1;
28026;PMS5003;15344;52.342;-1.290;2024-03-02T11:25:46;1;1;
28026;PMS5003;15344;52.342;-1.290;2024-03-02T11:28:12;0;0;
28026;PMS5003;15344;52.342;-1.290;2024-03-02T11:33:03;1;1;
28026;PMS5003;15344;52.342;-1.290;2024-03-02T11:35:28;2;1;
28026;PMS5003;15344;52.342;-1.290;2024-03-02T11:37:54;2;2;
28026;PMS5003;15344;52.342;-1.290;2024-03-02T11:40:21;1;1;
28026;PMS5003;15344;52.342;-1.290;2024-03-02T11:42:44;1;1;
28026;PMS5003;15344;52.342;-1.290;2024-03-02T11:45:10;1;1;
28026;PMS5003;15344;52.342;-1.290;2024-03-02T11:47:35;2;2;
28026;PMS5003;15344;52.342;-1.290;2024-03-02T11:50:01;2;2;
28026;PMS5003;15344;52.342;-1.290;2024-03-02T11:52:26;2;2;
28026;PMS5003;15344;52.342;-1.290;2024-03-02T11:54:51;0;0;
28026;PMS5003;15344;52.342;-1.290;2024-03-02T11:57:17;0;0;
28026;PMS5003;15344;52.342;-1.290;2024-03-02T11:59:42;1;1;
28026;PMS5003;15344;52.342;-1.290;2024-03-02T12:02:12;1;1;
28026;PMS5003;15344;52.342;-1.290;2024-03-02T12:04:33;2;2;
28026;PMS5003;15344;52.342;-1.290;2024-03-02T12:06:59;0;0;
28026;PMS5003;15344;52.342;-1.290;2024-03-02T12:09:24;3;3;
28026;PMS5003;15344;52.342;-1.290;2024-03-02T12:14:15;1;1;
28026;PMS5003;15344;52.342;-1.290;2024-03-02T12:16:43;2;1;
28026;PMS5003;15344;52.342;-1.290;2024-03-02T12:19:06;2;2;
28026;PMS5003;15344;52.342;-1.290;2024-03-02T12:21:32;1;1;
28026;PMS5003;15344;52.342;-1.290;2024-03-02T12:23:57;2;2;
28026;PMS5003;15344;52.342;-1.290;2024-03-02T12:26:22;1;1;
28026;PMS5003;15344;52.342;-1.290;2024-03-02T12:28:48;2;1;
28026;PMS5003;15344;52.342;-1.290;2024-03-02T12:31:13;2;1;
28026;PMS5003;15344;52.342;-1.290;2024-03-02T12:33:39;2;1;
28026;PMS5003;15344;52.342;-1.290;2024-03-02T12:36:04;2;2;
28026;PMS5003;15344;52.342;-1.290;2024-03-02T12:38:30;0;0;
28026;PMS5003;15344;52.342;-1.290;2024-03-02T12:40:55;1;1;
28026;PMS5003;15344;52.342;-1.290;2024-03-02T12:43:21;0;0;
28026;PMS5003;15344;52.342;-1.290;2024-03-02T12:45:46;1;1;
28026;PMS5003;15344;52.342;-1.290;2024-03-02T12:48:11;0;0;
28026;PMS5003;15344;52.342;-1.290;2024-03-02T12:50:37;0;0;
28026;PMS5003;15344;52.342;-1.290;2024-03-02T12:53:02;0;0;
28026;PMS5003;15344;52.342;-1.290;2024-03-02T12:55:28;0;0;
28026;PMS5003;15344;52.342;-1.290;2024-03-02T12:57:53;0;0;
28026;PMS5003;15344;52.342;-1.290;2024-03-02T13:00:19;0;0;
28026;PMS5003;15344;52.342;-1.290;2024-03-02T13:02:45;1;1;
28026;PMS5003;15344;52.342;-1.290;2024-03-02T13:05:10;1;1;
28026;PMS5003;15344;52.342;-1.290;2024-03-02T13:07:35;1;1;
28026;PMS5003;15344;52.342;-1.290;2024-03-02T13:10:00;1;1;
28026;PMS5003;15344;52.342;-1.290;2024-03-02T13:12:26;0;0;
28026;PMS5003;15344;52.342;-1.290;2024-03-02T13:14:51;3;2;
28026;PMS5003;15344;52.342;-1.290;2024-03-02T13:17:17;0;0;
28026;PMS5003;15344;52.342;-1.290;2024-03-02T13:19:43;2;1;
28026;PMS5003;15344;52.342;-1.290;2024-03-02T13:22:08;1;1;
28026;PMS5003;15344;52.342;-1.290;2024-03-02T13:24:33;1;1;
28026;PMS5003;15344;52.342;-1.290;2024-03-02T13:26:59;1;1;
28026;PMS5003;15344;52.342;-1.290;2024-03-02T13:29:24;1;1;
28026;PMS5003;15344;52.342;-1.290;2024-03-02T13:31:49;2;2;
28026;PMS5003;15344;52.342;-1.290;2024-03-02T13:34:15;2;2;
28026;PMS5003;15344;52.342;-1.290;2024-03-02T13:36:40;1;1;
28026;PMS5003;15344;52.342;-1.290;2024-03-02T13:39:06;1;1;
28026;PMS5003;15344;52.342;-1.290;2024-03-02T13:41:31;1;1;
28026;PMS5003;15344;52.342;-1.290;2024-03-02T13:43:57;1;1;
28026;PMS5003;15344;52.342;-1.290;2024-03-02T13:46:22;2;2;
28026;PMS5003;15344;52.342;-1.290;2024-03-02T13:48:47;2;2;
28026;PMS5003;15344;52.342;-1.290;2024-03-02T13:51:13;4;2;
28026;PMS5003;15344;52.342;-1.290;2024-03-02T13:53:38;1;1;
28026;PMS5003;15344;52.342;-1.290;2024-03-02T13:56:04;1;1;
28026;PMS5003;15344;52.342;-1.290;2024-03-02T13:58:29;0;0;
28026;PMS5003;15344;52.342;-1.290;2024-03-02T14:00:55;2;0;
28026;PMS5003;15344;52.342;-1.290;2024-03-02T14:03:20;2;2;
28026;PMS5003;15344;52.342;-1.290;2024-03-02T14:05:45;2;0;
28026;PMS5003;15344;52.342;-1.290;2024-03-02T14:08:11;1;1;
28026;PMS5003;15344;52.342;-1.290;2024-03-02T14:10:36;2;2;
28026;PMS5003;15344;52.342;-1.290;2024-03-02T14:13:02;3;1;
28026;PMS5003;15344;52.342;-1.290;2024-03-02T14:15:27;0;0;
28026;PMS5003;15344;52.342;-1.290;2024-03-02T14:17:53;1;1;
28026;PMS5003;15344;52.342;-1.290;2024-03-02T14:20:18;1;1;
28026;PMS5003;15344;52.342;-1.290;2024-03-02T14:22:44;2;0;
28026;PMS5003;15344;52.342;-1.290;2024-03-02T14:25:09;0;0;
28026;PMS5003;15344;52.342;-1.290;2024-03-02T14:27:35;1;1;
28026;PMS5003;15344;52.342;-1.290;2024-03-02T14:30:06;2;1;
28026;PMS5003;15344;52.342;-1.290;2024-03-02T14:32:25;0;0;
28026;PMS5003;15344;52.342;-1.290;2024-03-02T14:34:51;0;0;
28026;PMS5003;15344;52.342;-1.290;2024-03-02T14:37:16;0;0;
28026;PMS5003;15344;52.342;-1.290;2024-03-02T14:39:42;0;0;
28026;PMS5003;15344;52.342;-1.290;2024-03-02T14:42:07;1;0;
28026;PMS5003;15344;52.342;-1.290;2024-03-02T14:44:33;0;0;
28026;PMS5003;15344;52.342;-1.290;2024-03-02T14:46:58;0;0;
28026;PMS5003;15344;52.342;-1.290;2024-03-02T14:49:24;0;0;
28026;PMS5003;15344;52.342;-1.290;2024-03-02T14:51:49;0;0;
28026;PMS5003;15344;52.342;-1.290;2024-03-02T14:54:15;0;0;
28026;PMS5003;15344;52.342;-1.290;2024-03-02T14:56:40;0;0;
28026;PMS5003;15344;52.342;-1.290;2024-03-02T14:59:06;1;1;
28026;PMS5003;15344;52.342;-1.290;2024-03-02T15:01:31;2;0;
28026;PMS5003;15344;52.342;-1.290;2024-03-02T15:03:57;1;1;
28026;PMS5003;15344;52.342;-1.290;2024-03-02T15:06:22;1;1;
28026;PMS5003;15344;52.342;-1.290;2024-03-02T15:08:47;0;0;
28026;PMS5003;15344;52.342;-1.290;2024-03-02T15:11:13;0;0;
28026;PMS5003;15344;52.342;-1.290;2024-03-02T15:13:38;1;1;
28026;PMS5003;15344;52.342;-1.290;2024-03-02T15:16:04;1;1;
28026;PMS5003;15344;52.342;-1.290;2024-03-02T15:18:30;4;3;
28026;PMS5003;15344;52.342;-1.290;2024-03-02T15:20:55;3;2;
28026;PMS5003;15344;52.342;-1.290;2024-03-02T15:23:20;0;0;
28026;PMS5003;15344;52.342;-1.290;2024-03-02T15:25:46;1;1;
28026;PMS5003;15344;52.342;-1.290;2024-03-02T15:28:11;1;1;
28026;PMS5003;15344;52.342;-1.290;2024-03-02T15:30:37;0;0;
28026;PMS5003;15344;52.342;-1.290;2024-03-02T15:33:03;1;1;
28026;PMS5003;15344;52.342;-1.290;2024-03-02T15:35:28;0;0;
28026;PMS5003;15344;52.342;-1.290;2024-03-02T15:37:53;0;0;
28026;PMS5003;15344;52.342;-1.290;2024-03-02T15:40:19;0;0;
28026;PMS5003;15344;52.342;-1.290;2024-03-02T15:42:44;0;0;
28026;PMS5003;15344;52.342;-1.290;2024-03-02T15:45:10;1;1;
28026;PMS5003;15344;52.342;-1.290;2024-03-02T15:47:35;1;1;
28026;PMS5003;15344;52.342;-1.290;2024-03-02T15:50:01;1;1;
28026;PMS5003;15344;52.342;-1.290;2024-03-02T15:52:26;0;0;
28026;PMS5003;15344;52.342;-1.290;2024-03-02T15:54:52;1;1;
28026;PMS5003;15344;52.342;-1.290;2024-03-02T15:57:17;0;0;
28026;PMS5003;15344;52.342;-1.290;2024-03-02T15:59:43;1;1;
28026;PMS5003;15344;52.342;-1.290;2024-03-02T16:02:08;1;1;
28026;PMS5003;15344;52.342;-1.290;2024-03-02T16:04:34;1;1;
28026;PMS5003;15344;52.342;-1.290;2024-03-02T16:06:59;1;1;
28026;PMS5003;15344;52.342;-1.290;2024-03-02T16:09:25;1;1;
28026;PMS5003;15344;52.342;-1.290;2024-03-02T16:11:50;1;1;
28026;PMS5003;15344;52.342;-1.290;2024-03-02T16:14:16;2;2;
28026;PMS5003;15344;52.342;-1.290;2024-03-02T16:16:41;0;0;
28026;PMS5003;15344;52.342;-1.290;2024-03-02T16:19:07;2;2;
28026;PMS5003;15344;52.342;-1.290;2024-03-02T16:21:32;0;0;